nws-alerts: Checking more than four warning/county codes can delay the loading of your pages. You should use a cron job to get the data.

Nearby METAR Reports

 

KDTW - Detroit/Wayne, Michigan, USA
Distance from station: S 33mi, 53km
Updated: Thu, 01/18/2018 11:53am EST
Partly cloudy
Partly cloudy
 Wind from SW
Wind: SW 15 mph , 24 km/h
Temperature: 23°F , -5°C
Wind Chill: 10°F , -12°C
Dew Point: 12°F , -11°C
Humidity: 63%
Barometer: 30.10 inHg , 1019.3 hPa
Clouds: Partly cloudy
Visibility: 8 miles , 13 km
Cloud details: Few Clouds 3000 ft
Partly cloudy 23000 ft
2018/01/18 16:53 KDTW 181653Z 23013KT 8SM FEW030 SCT230 M05/M11 A3010 RMK AO2 SLP204 T10501106
KPTK - Pontiac, Michigan, USA
Distance from station: SSW 4mi, 6km
Updated: Thu, 01/18/2018 11:53am EST
Few Clouds
Few Clouds
 Wind from W
Wind: W 14 mph , 22 km/h
Temperature: 23°F , -5°C
Wind Chill: 11°F , -12°C
Dew Point: 16°F , -9°C
Humidity: 74%
Barometer: 30.03 inHg , 1016.9 hPa
Clouds: Few Clouds
Visibility: 9 miles , 14 km
Cloud details: Few Clouds 16000 ft
Few Clouds 25000 ft
2018/01/18 16:53 KPTK 181653Z 26012KT 9SM FEW160 FEW250 M05/M09 A3003 RMK AO2 SLP185 T10501089
 
KMTC - Selfridge Angb, Michigan, USA
Distance from station: ESE 29mi, 47km
Updated: Thu, 01/18/2018 11:56am EST
Few Clouds
Few Clouds
 Wind from SW
Wind: SW 13 mph , 20 km/h
Temperature: 23°F , -5°C
Wind Chill: 11°F , -12°C
Dew Point: 10°F , -12°C
Humidity: 58%
Barometer: 30.03 inHg , 1016.9 hPa
Clouds: Few Clouds
Visibility: 10 miles , 16 km
Cloud details: Few Clouds 17000 ft
2018/01/18 16:56 KMTC 181656Z 23011KT 10SM FEW170 M05/M12 A3003 RMK AO2A SLP186 WND DATA ESTMD ALSTG/SLP ESTMD T10471117 $
KPHN - Port Huron, Michigan, USA
Distance from station: ENE 46mi, 74km
Updated: Thu, 01/18/2018 12:35pm EST
Clear
Clear
 Wind from S
Wind: S 10 mph , 17 km/h, Gust: 18 mph , 30 km/h
Temperature: 25°F , -4°C
Wind Chill: 15°F , -9°C
Dew Point: 14°F , -10°C
Humidity: 63%
Barometer: 30.03 inHg , 1016.9 hPa
Clouds: Clear
Visibility: 10 miles , 16 km
2018/01/18 17:35 KPHN 181735Z AUTO 19009G16KT 10SM CLR M04/M10 A3003 RMK AO2